Terminal Aerodrome Forecast
Issued by NWS Mobile, AL

Home | Current Version | Previous Version | Text Only | Print | Product List | Glossary On
Versions: 1 2 3 4 5 6 7 8 9 10 11 12 13 14 15 16 17 18 19 20 21 22 23 24
000
FTUS44 KMOB 031149 AAA
TAFMOB
TAF AMD
KMOB 031149Z 0312/0412 33003KT P6SM OVC150
      TEMPO 0312/0313 5SM BR
     FM031800 18007KT P6SM VCTS SCT030CB BKN150
     FM040300 VRB03KT P6SM SCT050=

USA.gov is the U.S. government's official web portal to all federal, state and local government web resources and services.